createdAt,value
2019-06-07T00:00:01.959Z,100785.05
2019-06-07T00:02:29.483Z,100785.56
2019-06-07T00:04:57.712Z,100790.95
2019-06-07T00:07:24.776Z,100785.52
2019-06-07T00:09:52.556Z,100783.14
2019-06-07T00:12:21.512Z,100771.42
2019-06-07T00:14:49.471Z,100768.94
2019-06-07T00:17:19.617Z,100773.63
2019-06-07T00:19:46.575Z,100762.98
2019-06-07T00:22:25.342Z,100757.61
2019-06-07T00:24:44.301Z,100760.48
2019-06-07T00:27:12.804Z,100756.38
2019-06-07T00:29:40.635Z,100761.23
2019-06-07T00:32:09.287Z,100749.02
2019-06-07T00:34:37.351Z,100752.19
2019-06-07T00:37:04.987Z,100746.86
2019-06-07T00:39:33.052Z,100752.92
2019-06-07T00:42:01.016Z,100755.84
2019-06-07T00:44:28.655Z,100746.39
2019-06-07T00:46:56.339Z,100749.30
2019-06-07T00:49:40.113Z,100750.30
2019-06-07T00:51:54.018Z,100751.00
2019-06-07T00:54:24.577Z,100755.06
2019-06-07T00:56:52.047Z,100755.24
2019-06-07T00:59:24.273Z,100752.49
2019-06-07T01:01:49.714Z,100755.51
2019-06-07T01:04:19.399Z,100758.95
2019-06-07T01:06:47.744Z,100750.95
2019-06-07T01:09:15.387Z,100743.40
2019-06-07T01:11:43.097Z,100728.64
2019-06-07T01:14:10.889Z,100728.25
2019-06-07T01:16:56.744Z,100727.66
2019-06-07T01:19:07.563Z,100733.23
2019-06-07T01:21:35.818Z,100735.72
2019-06-07T01:24:11.896Z,100738.27
2019-06-07T01:26:33.587Z,100742.76
2019-06-07T01:29:01.238Z,100741.65
2019-06-07T01:31:31.644Z,100732.37
2019-06-07T01:33:57.681Z,100731.87
2019-06-07T01:36:29.545Z,100726.25
2019-06-07T01:38:55.556Z,100718.02
2019-06-07T01:41:25.258Z,100714.63
2019-06-07T01:43:52.293Z,100717.20
2019-06-07T01:46:20.739Z,100720.11
2019-06-07T01:48:49.888Z,100711.29
2019-06-07T01:51:18.939Z,100711.16
2019-06-07T01:53:46.816Z,100703.38
2019-06-07T01:56:13.854Z,100706.04
2019-06-07T01:58:41.631Z,100708.08
2019-06-07T02:01:08.622Z,100700.00
2019-06-07T02:03:36.253Z,100693.20
2019-06-07T02:06:03.805Z,100681.98
2019-06-07T02:08:34.286Z,100690.94
2019-06-07T02:11:01.395Z,100692.34
2019-06-07T02:13:30.720Z,100688.11
2019-06-07T02:15:58.671Z,100693.02
2019-06-07T02:18:31.302Z,100692.70
2019-06-07T02:20:55.825Z,100696.28
2019-06-07T02:23:27.534Z,100701.06
2019-06-07T02:25:53.687Z,100701.33
2019-06-07T02:28:30.091Z,100701.98
2019-06-07T02:31:00.241Z,100695.55
2019-06-07T02:33:25.830Z,100704.04
2019-06-07T02:35:50.757Z,100683.27
2019-06-07T02:38:18.854Z,100685.59
2019-06-07T02:40:46.641Z,100686.80
2019-06-07T02:43:14.040Z,100687.39
2019-06-07T02:45:43.751Z,100682.77
2019-06-07T02:48:11.267Z,100677.52
2019-06-07T02:50:39.649Z,100676.61
2019-06-07T02:53:07.472Z,100677.39
2019-06-07T02:56:26.515Z,100681.75
2019-06-07T02:58:04.115Z,100682.21
2019-06-07T03:01:03.783Z,100679.92
2019-06-07T03:03:15.663Z,100680.94
2019-06-07T03:05:44.625Z,100681.66
2019-06-07T03:08:12.888Z,100647.27
2019-06-07T03:10:43.123Z,100689.75
2019-06-07T03:13:14.001Z,100691.39
2019-06-07T03:15:49.939Z,100685.63
2019-06-07T03:18:36.419Z,100696.17
2019-06-07T03:21:05.848Z,100696.96
2019-06-07T03:23:36.088Z,100687.55
2019-06-07T03:26:04.383Z,100693.23
2019-06-07T03:28:37.083Z,100695.00
2019-06-07T03:31:03.193Z,100695.73
2019-06-07T03:33:33.318Z,100698.73
2019-06-07T03:36:13.042Z,100700.61
2019-06-07T03:38:31.994Z,100708.94
2019-06-07T03:40:59.101Z,100702.77
2019-06-07T03:43:27.424Z,100706.09
2019-06-07T03:45:54.450Z,100701.12
2019-06-07T03:48:22.239Z,100696.93
2019-06-07T03:51:03.887Z,100670.25
2019-06-07T03:53:18.988Z,100698.28
2019-06-07T03:55:46.639Z,100698.80
2019-06-07T03:58:31.968Z,100603.88
2019-06-07T04:00:43.631Z,100694.53
2019-06-07T04:03:31.174Z,100698.83
2019-06-07T04:05:43.474Z,100704.34
2019-06-07T04:08:10.005Z,100704.89
2019-06-07T04:10:53.415Z,100712.45
2019-06-07T04:13:06.794Z,100695.00
2019-06-07T04:15:38.314Z,100694.34
2019-06-07T04:18:04.226Z,100687.89
2019-06-07T04:20:34.089Z,100686.57
2019-06-07T04:23:01.637Z,100686.23
2019-06-07T04:25:31.644Z,100684.67
2019-06-07T04:27:58.617Z,100697.06
2019-06-07T04:30:41.821Z,100662.88
2019-06-07T04:33:09.566Z,100698.37
2019-06-07T04:35:40.002Z,100699.56
2019-06-07T04:38:08.119Z,100697.13
2019-06-07T04:40:36.984Z,100692.84
2019-06-07T04:43:05.816Z,100688.41
2019-06-07T04:45:41.726Z,100692.03
2019-06-07T04:48:04.345Z,100685.81
2019-06-07T04:50:34.318Z,100682.27
2019-06-07T04:53:02.245Z,100680.95
2019-06-07T04:55:31.426Z,100681.98
2019-06-07T04:57:59.482Z,100681.48
2019-06-07T05:00:49.725Z,100669.66
2019-06-07T05:03:01.238Z,100673.40
2019-06-07T05:05:29.340Z,100671.84
2019-06-07T05:07:57.350Z,100668.58
2019-06-07T05:10:25.368Z,100662.59
2019-06-07T05:12:52.668Z,100671.61
2019-06-07T05:15:20.376Z,100671.07
2019-06-07T05:17:47.913Z,100679.19
2019-06-07T05:20:16.751Z,100674.27
2019-06-07T05:22:45.460Z,100670.42
2019-06-07T05:25:12.599Z,100671.81
2019-06-07T05:27:45.964Z,100664.88
2019-06-07T05:30:36.438Z,100668.94
2019-06-07T05:32:45.207Z,100660.04
2019-06-07T05:35:09.033Z,100659.92
2019-06-07T05:37:38.026Z,100659.68
2019-06-07T05:40:06.765Z,100654.51
2019-06-07T05:42:40.214Z,100659.69
2019-06-07T05:45:05.232Z,100658.38
2019-06-07T05:47:37.508Z,100643.43
2019-06-07T05:50:02.212Z,100644.11
2019-06-07T05:52:30.233Z,100640.19
2019-06-07T05:54:58.429Z,100646.23
2019-06-07T05:57:26.055Z,100641.45
2019-06-07T05:59:54.050Z,100637.09
2019-06-07T06:02:24.550Z,100633.13
2019-06-07T06:04:51.498Z,100628.98
2019-06-07T06:07:18.928Z,100629.43
2019-06-07T06:09:47.514Z,100623.69
2019-06-07T06:12:33.547Z,100624.48
2019-06-07T06:14:46.870Z,100616.99
2019-06-07T06:17:14.557Z,100626.08
2019-06-07T06:19:47.508Z,100627.95
2019-06-07T06:22:11.103Z,100620.98
2019-06-07T06:24:40.001Z,100631.38
2019-06-07T06:27:40.746Z,100628.20
2019-06-07T06:29:40.133Z,100620.50
2019-06-07T06:32:41.226Z,100629.06
2019-06-07T06:34:40.018Z,100620.43
2019-06-07T06:37:07.069Z,100614.21
2019-06-07T06:39:34.235Z,100611.38
2019-06-07T06:42:03.968Z,100606.73
2019-06-07T06:44:31.417Z,100613.48
2019-06-07T06:46:59.081Z,100574.23
2019-06-07T06:49:26.365Z,100606.83
2019-06-07T06:51:54.520Z,100609.30
2019-06-07T06:54:39.601Z,100610.03
2019-06-07T06:56:52.777Z,100613.85
2019-06-07T06:59:38.073Z,100616.44
2019-06-07T07:01:52.330Z,100614.75
2019-06-07T07:04:18.194Z,100614.44
2019-06-07T07:06:47.990Z,100614.64
2019-06-07T07:09:15.073Z,100619.78
2019-06-07T07:11:55.278Z,100612.19
2019-06-07T07:14:13.049Z,100609.25
2019-06-07T07:16:42.240Z,100607.00
2019-06-07T07:19:10.099Z,100603.93
2019-06-07T07:21:37.541Z,100604.13
2019-06-07T07:24:21.101Z,100608.65
2019-06-07T07:26:34.612Z,100609.13
2019-06-07T07:29:02.095Z,100610.72
2019-06-07T07:31:29.544Z,100601.83
2019-06-07T07:34:28.697Z,100602.42
2019-06-07T07:36:38.982Z,100586.34
2019-06-07T07:39:03.471Z,100587.26
2019-06-07T07:41:25.599Z,100575.33
2019-06-07T07:44:04.442Z,100578.95
2019-06-07T07:46:30.125Z,100578.76
2019-06-07T07:48:54.203Z,100575.34
2019-06-07T07:51:20.907Z,100572.43
2019-06-07T07:53:58.982Z,100566.75
2019-06-07T07:56:17.694Z,100570.61
2019-06-07T07:58:49.742Z,100579.53
2019-06-07T08:01:14.614Z,100574.59
2019-06-07T08:03:41.712Z,100567.78
2019-06-07T08:06:09.385Z,100566.19
2019-06-07T08:08:36.732Z,100557.75
2019-06-07T08:11:03.759Z,100557.01
2019-06-07T08:13:31.764Z,100542.05
2019-06-07T08:16:06.216Z,100548.09
2019-06-07T08:18:28.482Z,100547.89
2019-06-07T08:21:20.326Z,100545.82
2019-06-07T08:23:25.871Z,100543.27
2019-06-07T08:25:59.547Z,100539.03
2019-06-07T08:28:22.699Z,100528.97
2019-06-07T08:30:55.179Z,100528.73
2019-06-07T08:33:27.018Z,100517.06
2019-06-07T08:36:16.944Z,100526.01
2019-06-07T08:38:27.447Z,100511.08
2019-06-07T08:40:54.631Z,100516.44
2019-06-07T08:43:21.043Z,100512.47
2019-06-07T08:45:47.162Z,100509.30
2019-06-07T08:48:27.389Z,100504.34
2019-06-07T08:50:43.895Z,100506.55
2019-06-07T08:53:12.497Z,100498.47
2019-06-07T08:55:40.032Z,100497.23
2019-06-07T08:58:08.738Z,100487.97
2019-06-07T09:00:47.246Z,100497.95
2019-06-07T09:03:07.494Z,100492.81
2019-06-07T09:05:35.305Z,100481.59
2019-06-07T09:08:23.647Z,100487.57
2019-06-07T09:10:32.755Z,100474.55
2019-06-07T09:13:07.500Z,100472.91
2019-06-07T09:15:29.936Z,100465.98
2019-06-07T09:18:35.021Z,100458.31
2019-06-07T09:20:48.555Z,100452.87
2019-06-07T09:23:17.643Z,100449.73
2019-06-07T09:26:00.875Z,100448.13
2019-06-07T09:28:19.741Z,100443.24
2019-06-07T09:30:45.197Z,100442.25
2019-06-07T09:33:12.671Z,100425.34
2019-06-07T09:35:40.699Z,100427.20
2019-06-07T09:38:23.388Z,100415.22
2019-06-07T09:40:37.212Z,100403.15
2019-06-07T09:43:55.400Z,100409.76
2019-06-07T09:45:35.206Z,100401.05
2019-06-07T09:48:05.685Z,100396.63
2019-06-07T09:50:31.927Z,100396.27
2019-06-07T09:53:10.108Z,100404.74
2019-06-07T09:55:28.425Z,100393.48
2019-06-07T09:57:56.498Z,100398.98
2019-06-07T10:00:42.283Z,100385.86
2019-06-07T10:02:54.477Z,100384.21
2019-06-07T10:05:21.916Z,100380.71
2019-06-07T10:08:02.395Z,100388.44
2019-06-07T10:12:48.635Z,100377.20
2019-06-07T10:15:15.762Z,100359.53
2019-06-07T10:17:43.478Z,100353.94
2019-06-07T10:20:11.708Z,100370.39
2019-06-07T10:22:39.152Z,100366.86
2019-06-07T10:25:08.515Z,100352.91
2019-06-07T10:27:36.495Z,100355.11
2019-06-07T10:30:06.294Z,100346.92
2019-06-07T10:32:33.661Z,100347.18
2019-06-07T10:35:03.074Z,100351.66
2019-06-07T10:37:31.216Z,100351.66
2019-06-07T10:39:58.643Z,100348.98
2019-06-07T10:42:26.000Z,100338.33
2019-06-07T10:44:53.639Z,100347.66
2019-06-07T10:47:21.033Z,100348.73
2019-06-07T10:49:48.102Z,100337.97
2019-06-07T10:54:42.583Z,100332.02
2019-06-07T10:57:13.816Z,100333.86
2019-06-07T10:59:38.662Z,100322.95
2019-06-07T11:02:07.820Z,100320.39
2019-06-07T11:04:35.003Z,100309.34
2019-06-07T11:07:04.363Z,100314.31
2019-06-07T11:09:33.334Z,100315.20
2019-06-07T11:12:01.544Z,100318.33
2019-06-07T11:14:29.673Z,100314.02
2019-06-07T11:16:56.651Z,100295.74
2019-06-07T11:19:24.019Z,100297.77
2019-06-07T11:21:52.292Z,100292.72
2019-06-07T11:24:24.437Z,100282.95
2019-06-07T11:26:49.158Z,100282.64
2019-06-07T11:29:16.155Z,100282.30
2019-06-07T11:31:47.284Z,100279.52
2019-06-07T11:34:14.599Z,100274.34
2019-06-07T11:36:42.090Z,100273.18
2019-06-07T11:39:11.076Z,100258.84
2019-06-07T11:41:38.707Z,100255.69
2019-06-07T11:44:06.704Z,100254.84
2019-06-07T11:46:34.366Z,100248.79
2019-06-07T11:49:02.049Z,100241.77
2019-06-07T11:51:29.552Z,100229.86
2019-06-07T11:53:57.352Z,100223.84
2019-06-07T11:56:24.756Z,100228.00
2019-06-07T11:58:54.903Z,100231.73
2019-06-07T12:01:21.945Z,100231.39
2019-06-07T12:03:49.311Z,100214.70
2019-06-07T12:06:18.124Z,100216.30
2019-06-07T12:08:45.219Z,100195.64
2019-06-07T12:11:14.279Z,100191.41
2019-06-07T12:13:41.923Z,100193.27
2019-06-07T12:16:11.178Z,100185.77
2019-06-07T12:18:38.927Z,100194.42
2019-06-07T12:21:05.967Z,100192.73
2019-06-07T12:23:34.425Z,100195.47
2019-06-07T12:26:03.278Z,100192.97
2019-06-07T12:28:30.648Z,100185.20
2019-06-07T12:30:57.955Z,100179.59
2019-06-07T12:33:25.616Z,100171.72
2019-06-07T12:35:52.631Z,100171.91
2019-06-07T12:38:21.070Z,100162.12
2019-06-07T12:40:57.499Z,100148.72
2019-06-07T12:43:19.217Z,100145.09
2019-06-07T12:45:46.964Z,100139.84
2019-06-07T12:48:17.602Z,100132.77
2019-06-07T12:50:44.062Z,100130.60
2019-06-07T12:53:11.671Z,100125.88
2019-06-07T12:55:42.793Z,100117.03
2019-06-07T12:58:10.519Z,100112.06
2019-06-07T13:00:37.548Z,100108.88
2019-06-07T13:03:04.640Z,100108.37
2019-06-07T13:05:32.388Z,100113.59
2019-06-07T13:08:00.501Z,100096.14
2019-06-07T13:10:28.577Z,100089.20
2019-06-07T13:12:56.427Z,100091.63
2019-06-07T13:15:25.975Z,100079.41
2019-06-07T13:17:54.004Z,100076.84
2019-06-07T13:20:22.691Z,100078.17
2019-06-07T13:22:50.598Z,100070.64
2019-06-07T13:25:21.260Z,100090.72
2019-06-07T13:27:49.105Z,100058.17
2019-06-07T13:30:18.814Z,100062.25
2019-06-07T13:32:46.490Z,100057.17
2019-06-07T13:35:14.406Z,100063.20
2019-06-07T13:37:42.725Z,100058.24
2019-06-07T13:40:10.158Z,100056.86
2019-06-07T13:42:37.172Z,100045.77
2019-06-07T13:45:06.797Z,100051.63
2019-06-07T13:47:34.240Z,100052.25
2019-06-07T13:50:02.066Z,100040.45
2019-06-07T13:52:29.814Z,100032.62
2019-06-07T13:54:57.510Z,100032.39
2019-06-07T13:57:26.061Z,100035.71
2019-06-07T13:59:53.592Z,100025.38
2019-06-07T14:02:21.251Z,100023.86
2019-06-07T14:04:49.844Z,100020.21
2019-06-07T14:07:18.861Z,100008.33
2019-06-07T14:09:46.829Z,100002.75
2019-06-07T14:12:16.486Z,99992.30
2019-06-07T14:14:44.598Z,99990.51
2019-06-07T14:17:12.396Z,99997.27
2019-06-07T14:19:39.435Z,100001.80
2019-06-07T14:22:06.814Z,99994.05
2019-06-07T14:24:34.838Z,99988.22
2019-06-07T14:27:05.183Z,99992.82
2019-06-07T14:29:32.337Z,99996.60
2019-06-07T14:31:59.708Z,99995.78
2019-06-07T14:34:28.701Z,99987.89
2019-06-07T14:36:57.201Z,99983.06
2019-06-07T14:39:24.985Z,99980.80
2019-06-07T14:42:08.032Z,99976.56
2019-06-07T14:44:21.407Z,99980.29
2019-06-07T14:46:48.506Z,99974.57
2019-06-07T14:49:15.870Z,99974.16
2019-06-07T14:51:43.556Z,99970.91
2019-06-07T14:54:10.625Z,99967.91
2019-06-07T14:56:37.645Z,99954.00
2019-06-07T14:59:05.030Z,99945.19
2019-06-07T15:01:33.534Z,99940.70
2019-06-07T15:04:01.372Z,99935.38
2019-06-07T15:06:28.650Z,99937.86
2019-06-07T15:08:56.159Z,99938.40
2019-06-07T15:11:23.516Z,99939.37
2019-06-07T15:13:51.232Z,99943.59
2019-06-07T15:16:18.585Z,99956.88
2019-06-07T15:18:45.598Z,99963.69
2019-06-07T15:21:13.570Z,99953.22
2019-06-07T15:23:41.014Z,99953.06
2019-06-07T15:26:08.387Z,99957.63
2019-06-07T15:28:37.053Z,99956.76
2019-06-07T15:31:05.396Z,99950.98
2019-06-07T15:33:34.332Z,99954.94
2019-06-07T15:36:03.859Z,99947.72
2019-06-07T15:38:32.885Z,99953.42
2019-06-07T15:41:01.779Z,99950.27
2019-06-07T15:43:31.111Z,99941.23
2019-06-07T15:45:58.674Z,99943.92
2019-06-07T15:48:25.670Z,99944.27
2019-06-07T15:50:53.073Z,99951.88
2019-06-07T15:53:21.284Z,99946.50
2019-06-07T15:55:48.971Z,99947.06
2019-06-07T15:58:16.012Z,99944.44
2019-06-07T16:00:43.010Z,99942.58
2019-06-07T16:03:10.480Z,99948.81
2019-06-07T16:05:38.269Z,99947.03
2019-06-07T16:08:05.776Z,99948.05
2019-06-07T16:10:34.585Z,99950.16
2019-06-07T16:13:01.856Z,99950.67
2019-06-07T16:15:29.331Z,99947.41
2019-06-07T16:17:57.135Z,99946.56
2019-06-07T16:20:24.440Z,99948.41
2019-06-07T16:22:52.079Z,99939.69
2019-06-07T16:25:19.715Z,99939.50
2019-06-07T16:27:46.751Z,99940.02
2019-06-07T16:30:14.545Z,99938.83
2019-06-07T16:32:42.329Z,99947.47
2019-06-07T16:35:12.741Z,99958.94
2019-06-07T16:37:40.964Z,99945.38
2019-06-07T16:40:09.556Z,99942.88
2019-06-07T16:42:36.611Z,99927.11
2019-06-07T16:45:04.446Z,99939.36
2019-06-07T16:47:32.083Z,99937.33
2019-06-07T16:49:59.505Z,99930.33
2019-06-07T16:52:26.880Z,99916.58
2019-06-07T16:54:54.360Z,99915.50
2019-06-07T16:57:22.477Z,99910.69
2019-06-07T16:59:50.897Z,99907.77
2019-06-07T17:02:17.990Z,99892.02
2019-06-07T17:04:45.671Z,99883.52
2019-06-07T17:07:13.152Z,99882.52
2019-06-07T17:09:42.251Z,99889.20
2019-06-07T17:12:10.172Z,99892.77
2019-06-07T17:14:40.376Z,99895.59
2019-06-07T17:17:07.856Z,99900.87
2019-06-07T17:19:35.270Z,99908.28
2019-06-07T17:22:06.951Z,99908.21
2019-06-07T17:24:33.988Z,99906.95
2019-06-07T17:27:01.520Z,99904.45
2019-06-07T17:29:29.310Z,99905.66
2019-06-07T17:31:56.757Z,99896.00
2019-06-07T17:34:24.152Z,99901.73
2019-06-07T17:36:52.364Z,99897.93
2019-06-07T17:39:19.825Z,99909.46
2019-06-07T17:41:58.640Z,99920.91
2019-06-07T17:44:16.866Z,99919.20
2019-06-07T17:46:43.839Z,99908.46
2019-06-07T17:49:11.267Z,99920.13
2019-06-07T17:51:39.048Z,99925.87
2019-06-07T17:54:06.489Z,99937.45
2019-06-07T17:56:33.951Z,99989.00
2019-06-07T17:59:02.254Z,100023.28
2019-06-07T18:01:40.968Z,99987.25
2019-06-07T18:03:58.907Z,100013.26
2019-06-07T18:06:27.871Z,99943.44
2019-06-07T18:08:57.128Z,100036.89
2019-06-07T18:11:24.869Z,100080.80
2019-06-07T18:14:09.845Z,100068.61
2019-06-07T18:16:21.252Z,100119.03
2019-06-07T18:18:48.796Z,100097.36
2019-06-07T18:21:16.256Z,100146.22
2019-06-07T18:23:44.096Z,100076.86
2019-06-07T18:26:11.461Z,100110.26
2019-06-07T18:28:39.165Z,100117.49
2019-06-07T18:31:06.691Z,100120.22
2019-06-07T18:33:34.120Z,100152.78
2019-06-07T18:36:02.080Z,100164.84
2019-06-07T18:38:29.111Z,100188.55
2019-06-07T18:40:57.438Z,100204.33
2019-06-07T18:43:24.777Z,100222.98
2019-06-07T19:00:15.567Z,100250.72
2019-06-07T19:02:42.973Z,100255.80
2019-06-07T19:05:10.713Z,100258.84
2019-06-07T19:07:37.871Z,100241.77
2019-06-07T19:15:28.899Z,100236.08
2019-06-07T19:17:56.211Z,100240.72
2019-06-07T19:20:24.836Z,100239.08
2019-06-07T19:22:52.314Z,100238.81
2019-06-07T19:25:20.084Z,100223.50
2019-06-07T19:27:47.130Z,100221.98
2019-06-07T19:30:14.240Z,100223.20
2019-06-07T19:32:41.703Z,100226.03
2019-06-07T19:35:08.938Z,100219.06
2019-06-07T19:37:36.355Z,100199.53
2019-06-07T19:40:04.710Z,100219.77
2019-06-07T19:42:32.075Z,100216.44
2019-06-07T19:45:24.528Z,100225.98
2019-06-07T19:47:28.824Z,100242.91
2019-06-07T19:49:56.717Z,100251.03
2019-06-07T19:52:24.468Z,100253.49
2019-06-07T19:54:51.590Z,100235.17
2019-06-07T19:57:18.893Z,100193.50
2019-06-07T19:59:45.941Z,100193.50
2019-06-07T20:02:13.736Z,100225.62
2019-06-07T20:04:41.104Z,100249.31
2019-06-07T20:07:08.187Z,100266.50
2019-06-07T20:09:36.071Z,100263.67
2019-06-07T20:12:04.753Z,100257.97
2019-06-07T20:14:32.639Z,100252.98
2019-06-07T20:17:01.385Z,100233.39
2019-06-07T20:19:28.971Z,100214.14
2019-06-07T20:21:56.938Z,100251.68
2019-06-07T20:24:27.473Z,100245.30
2019-06-07T20:26:56.152Z,100226.64
2019-06-07T20:29:26.294Z,100254.65
2019-06-07T20:31:53.011Z,100238.39
2019-06-07T20:34:20.979Z,100252.77
2019-06-07T20:36:48.550Z,100280.32
2019-06-07T20:39:15.551Z,100319.17
2019-06-07T20:41:43.183Z,100340.91
2019-06-07T20:44:11.284Z,100357.76
2019-06-07T20:46:38.893Z,100356.27
2019-06-07T20:49:08.425Z,100385.88
2019-06-07T20:51:37.410Z,100391.95
2019-06-07T20:54:05.601Z,100389.10
2019-06-07T20:56:33.762Z,100398.89
2019-06-07T20:59:02.791Z,100389.61
2019-06-07T21:01:29.907Z,100377.80
2019-06-07T21:03:58.981Z,100351.64
2019-06-07T21:06:26.628Z,100332.72
2019-06-07T21:08:54.445Z,100329.50
2019-06-07T21:11:22.005Z,100342.41
2019-06-07T21:13:49.770Z,100335.39
2019-06-07T21:16:17.196Z,100276.95
2019-06-07T21:18:45.850Z,100233.25
2019-06-07T21:21:12.922Z,100229.78
2019-06-07T21:23:40.430Z,100256.20
2019-06-07T21:26:09.399Z,100262.58
2019-06-07T21:28:39.783Z,100259.55
2019-06-07T21:31:08.192Z,100291.22
2019-06-07T21:33:38.649Z,100297.31
2019-06-07T21:36:06.239Z,100299.55
2019-06-07T21:38:34.853Z,100298.62
2019-06-07T21:41:02.213Z,100287.92
2019-06-07T21:43:29.513Z,100285.20
2019-06-07T21:46:05.527Z,100264.77
2019-06-07T21:48:27.129Z,100264.03
2019-06-07T21:50:54.137Z,100254.95
2019-06-07T21:53:22.229Z,100271.50
2019-06-07T21:55:49.317Z,100271.80
2019-06-07T21:58:16.699Z,100285.00
2019-06-07T22:01:17.749Z,100292.20
2019-06-07T22:03:45.630Z,100292.41
2019-06-07T22:06:13.762Z,100318.87
2019-06-07T22:08:41.731Z,100340.84
2019-06-07T22:11:10.085Z,100339.17
2019-06-07T22:13:37.839Z,100316.55
2019-06-07T22:16:19.902Z,100312.22
2019-06-07T22:18:34.460Z,100320.96
2019-06-07T22:21:02.046Z,100334.47
2019-06-07T22:23:30.242Z,100336.64
2019-06-07T22:25:57.329Z,100358.35
2019-06-07T22:28:24.412Z,100351.66
2019-06-07T22:30:51.868Z,100341.04
2019-06-07T22:33:19.244Z,100338.94
2019-06-07T22:35:47.063Z,100338.49
2019-06-07T22:38:14.485Z,100348.11
2019-06-07T22:40:41.842Z,100343.19
2019-06-07T22:43:09.641Z,100347.71
2019-06-07T22:45:37.439Z,100335.39
2019-06-07T22:48:05.497Z,100336.22
2019-06-07T22:50:33.923Z,100323.72
2019-06-07T22:53:00.945Z,100315.23
2019-06-07T22:55:29.023Z,100311.00
2019-06-07T22:57:57.978Z,100304.52
2019-06-07T23:00:27.091Z,100308.48
2019-06-07T23:02:54.848Z,100294.86
2019-06-07T23:05:22.317Z,100293.38
2019-06-07T23:07:49.887Z,100290.33
2019-06-07T23:10:17.517Z,100324.30
2019-06-07T23:12:44.941Z,100339.44
2019-06-07T23:15:13.429Z,100332.06
2019-06-07T23:17:41.445Z,100329.11
2019-06-07T23:20:09.719Z,100345.87
2019-06-07T23:22:37.094Z,100333.20
2019-06-07T23:25:04.675Z,100331.66
2019-06-07T23:27:32.061Z,100342.60
2019-06-07T23:29:59.771Z,100343.66
2019-06-07T23:32:27.248Z,100360.86
2019-06-07T23:34:55.126Z,100357.58
2019-06-07T23:37:22.866Z,100365.38
2019-06-07T23:39:51.040Z,100355.67
2019-06-07T23:42:19.746Z,100347.61
2019-06-07T23:44:47.646Z,100341.60
2019-06-07T23:47:17.004Z,100339.96
2019-06-07T23:49:43.964Z,100357.80
2019-06-07T23:52:11.680Z,100345.50
2019-06-07T23:54:39.562Z,100339.97
2019-06-07T23:57:07.216Z,100334.95
2019-06-07T23:59:34.539Z,100337.43
